createdAt,value
2022-10-25T00:00:48.656Z,101257.72
2022-10-25T00:03:15.611Z,101261.22
2022-10-25T00:05:43.213Z,101265.50
2022-10-25T00:08:10.429Z,101257.44
2022-10-25T00:10:38.121Z,101267.13
2022-10-25T00:13:06.321Z,101259.13
2022-10-25T00:15:33.244Z,101262.66
2022-10-25T00:18:00.146Z,101261.69
2022-10-25T00:20:27.164Z,101261.63
2022-10-25T00:22:54.111Z,101259.75
2022-10-25T00:25:21.229Z,101270.38
2022-10-25T00:27:48.119Z,101266.72
2022-10-25T00:30:15.549Z,101274.75
2022-10-25T00:32:42.516Z,101280.06
2022-10-25T00:35:10.162Z,101283.56
2022-10-25T00:37:37.376Z,101280.91
2022-10-25T00:40:05.646Z,101286.19
2022-10-25T00:42:32.595Z,101289.84
2022-10-25T00:45:05.471Z,101287.16
2022-10-25T00:47:47.182Z,101287.22
2022-10-25T00:50:34.095Z,101283.66
2022-10-25T00:53:17.315Z,101287.16
2022-10-25T00:55:51.931Z,101284.38
2022-10-25T00:58:23.200Z,101291.44
2022-10-25T01:00:50.696Z,101294.13
2022-10-25T01:03:20.795Z,101282.44
2022-10-25T01:05:49.151Z,101294.81
2022-10-25T01:08:16.640Z,101288.50
2022-10-25T01:10:43.863Z,101290.19
2022-10-25T01:13:11.031Z,101296.31
2022-10-25T01:16:03.656Z,101298.88
2022-10-25T01:18:49.124Z,101300.59
2022-10-25T01:21:45.239Z,101299.66
2022-10-25T01:24:34.094Z,101302.31
2022-10-25T01:27:25.964Z,101303.19
2022-10-25T01:30:23.888Z,101302.28
2022-10-25T01:33:39.903Z,101304.81
2022-10-25T01:36:30.866Z,101312.72
2022-10-25T01:39:09.906Z,101315.28
2022-10-25T01:42:22.231Z,101325.94
2022-10-25T01:45:18.029Z,101324.03
2022-10-25T01:47:51.203Z,101326.66
2022-10-25T01:50:39.391Z,101322.13
2022-10-25T01:53:06.301Z,101322.03
2022-10-25T01:56:01.404Z,101324.69
2022-10-25T01:58:37.079Z,101323.75
2022-10-25T02:01:16.024Z,101323.75
2022-10-25T02:04:06.415Z,101321.91
2022-10-25T02:06:53.047Z,101320.16
2022-10-25T02:09:41.712Z,101318.41
2022-10-25T02:12:17.731Z,101320.16
2022-10-25T02:15:09.969Z,101328.97
2022-10-25T02:17:55.800Z,101324.50
2022-10-25T02:20:25.696Z,101321.91
2022-10-25T02:22:54.915Z,101322.69
2022-10-25T02:25:22.865Z,101319.22
2022-10-25T02:27:53.206Z,101323.72
2022-10-25T02:30:20.841Z,101328.09
2022-10-25T02:32:47.811Z,101324.75
2022-10-25T02:35:18.347Z,101327.47
2022-10-25T02:37:45.869Z,101327.63
2022-10-25T02:40:13.575Z,101332.16
2022-10-25T02:42:40.537Z,101333.19
2022-10-25T02:45:08.325Z,101339.50
2022-10-25T02:47:35.358Z,101337.72
2022-10-25T02:50:02.423Z,101344.81
2022-10-25T02:52:29.466Z,101337.59
2022-10-25T02:54:56.401Z,101341.09
2022-10-25T02:57:23.464Z,101340.16
2022-10-25T02:59:50.358Z,101340.16
2022-10-25T03:02:17.317Z,101345.38
2022-10-25T03:04:44.194Z,101337.41
2022-10-25T03:07:11.069Z,101341.88
2022-10-25T03:09:37.955Z,101348.97
2022-10-25T03:12:04.911Z,101346.25
2022-10-25T03:14:31.843Z,101354.22
2022-10-25T03:16:58.740Z,101356.84
2022-10-25T03:19:25.596Z,101363.94
2022-10-25T03:21:52.467Z,101370.16
2022-10-25T03:24:19.323Z,101375.41
2022-10-25T03:26:46.233Z,101378.91
2022-10-25T03:29:13.111Z,101377.19
2022-10-25T03:31:40.012Z,101377.25
2022-10-25T03:34:06.923Z,101390.47
2022-10-25T03:36:33.814Z,101380.66
2022-10-25T03:39:00.716Z,101394.13
2022-10-25T03:41:27.611Z,101394.13
2022-10-25T03:43:54.471Z,101398.50
2022-10-25T03:46:21.420Z,101397.63
2022-10-25T03:48:48.274Z,101400.38
2022-10-25T03:51:15.153Z,101401.44
2022-10-25T03:53:41.999Z,101406.78
2022-10-25T03:56:08.918Z,101403.16
2022-10-25T03:58:35.784Z,101413.88
2022-10-25T04:01:02.771Z,101409.44
2022-10-25T04:03:29.732Z,101411.19
2022-10-25T04:05:56.602Z,101408.56
2022-10-25T04:08:23.477Z,101414.84
2022-10-25T04:10:50.345Z,101417.41
2022-10-25T04:13:17.279Z,101421.88
2022-10-25T04:15:44.209Z,101422.88
2022-10-25T04:18:11.099Z,101425.50
2022-10-25T04:20:38.068Z,101423.63
2022-10-25T04:23:05.003Z,101428.06
2022-10-25T04:25:31.980Z,101426.38
2022-10-25T04:28:00.309Z,101434.28
2022-10-25T04:30:27.375Z,101428.94
2022-10-25T04:32:54.347Z,101435.25
2022-10-25T04:35:21.217Z,101445.97
2022-10-25T04:37:48.099Z,101446.13
2022-10-25T04:40:15.053Z,101448.69
2022-10-25T04:42:41.999Z,101444.25
2022-10-25T04:45:09.617Z,101439.78
2022-10-25T04:47:37.205Z,101438.97
2022-10-25T04:50:04.585Z,101444.44
2022-10-25T04:52:31.984Z,101449.72
2022-10-25T04:54:59.142Z,101450.78
2022-10-25T04:57:26.773Z,101455.28
2022-10-25T04:59:54.063Z,101453.44
2022-10-25T05:02:20.922Z,101457.09
2022-10-25T05:04:47.812Z,101459.19
2022-10-25T05:07:18.840Z,101463.69
2022-10-25T05:09:47.572Z,101471.00
2022-10-25T05:12:14.907Z,101471.00
2022-10-25T05:14:41.815Z,101471.00
2022-10-25T05:17:08.708Z,101475.47
2022-10-25T05:19:35.593Z,101483.47
2022-10-25T05:22:02.479Z,101479.84
2022-10-25T05:24:29.425Z,101482.47
2022-10-25T05:26:56.308Z,101476.28
2022-10-25T05:29:23.439Z,101491.41
2022-10-25T05:31:50.319Z,101479.97
2022-10-25T05:34:17.251Z,101489.59
2022-10-25T05:36:44.146Z,101480.66
2022-10-25T05:39:11.007Z,101484.22
2022-10-25T05:41:37.877Z,101493.06
2022-10-25T05:44:05.773Z,101494.84
2022-10-25T05:46:33.115Z,101499.31
2022-10-25T05:49:00.827Z,101493.97
2022-10-25T05:51:35.314Z,101492.28
2022-10-25T05:54:07.521Z,101495.81
2022-10-25T05:56:36.138Z,101496.69
2022-10-25T05:59:09.714Z,101498.56
2022-10-25T06:01:40.581Z,101510.16
2022-10-25T06:04:08.410Z,101511.91
2022-10-25T06:06:37.704Z,101507.41
2022-10-25T06:09:06.254Z,101517.25
2022-10-25T06:11:33.988Z,101514.53
2022-10-25T06:14:01.028Z,101510.16
2022-10-25T06:16:28.611Z,101527.84
2022-10-25T06:18:55.704Z,101526.94
2022-10-25T06:21:26.422Z,101529.59
2022-10-25T06:23:54.327Z,101529.66
2022-10-25T06:26:28.312Z,101538.50
2022-10-25T06:29:04.348Z,101544.72
2022-10-25T06:31:32.762Z,101544.72
2022-10-25T06:34:01.559Z,101547.44
2022-10-25T06:36:31.022Z,101549.19
2022-10-25T06:39:02.166Z,101554.50
2022-10-25T06:41:32.875Z,101560.75
2022-10-25T06:44:05.370Z,101564.38
2022-10-25T06:46:57.974Z,101562.63
2022-10-25T06:49:24.097Z,101566.34
2022-10-25T06:51:50.961Z,101573.53
2022-10-25T06:54:18.052Z,101578.97
2022-10-25T06:56:44.996Z,101578.19
2022-10-25T06:59:11.996Z,101579.06
2022-10-25T07:01:38.937Z,101576.38
2022-10-25T07:04:06.047Z,101573.72
2022-10-25T07:06:35.407Z,101576.44
2022-10-25T07:09:03.576Z,101573.75
2022-10-25T07:11:32.841Z,101581.94
2022-10-25T07:14:02.204Z,101583.78
2022-10-25T07:16:29.643Z,101590.06
2022-10-25T07:19:01.171Z,101592.78
2022-10-25T07:21:29.784Z,101584.72
2022-10-25T07:23:56.783Z,101599.03
2022-10-25T07:26:31.355Z,101605.47
2022-10-25T07:29:00.772Z,101603.69
2022-10-25T07:31:32.537Z,101605.44
2022-10-25T07:34:02.591Z,101603.56
2022-10-25T07:36:30.747Z,101610.66
2022-10-25T07:38:57.815Z,101609.84
2022-10-25T07:41:25.792Z,101615.09
2022-10-25T07:43:52.711Z,101619.56
2022-10-25T07:46:19.584Z,101612.41
2022-10-25T07:48:46.485Z,101615.09
2022-10-25T07:51:16.257Z,101614.16
2022-10-25T07:53:43.614Z,101619.47
2022-10-25T07:56:18.849Z,101621.22
2022-10-25T07:58:49.310Z,101626.53
2022-10-25T08:01:25.411Z,101629.06
2022-10-25T08:03:54.220Z,101628.00
2022-10-25T08:06:23.465Z,101634.88
2022-10-25T08:08:50.674Z,101639.16
2022-10-25T08:11:17.850Z,101632.63
2022-10-25T08:13:44.742Z,101635.03
2022-10-25T08:16:11.729Z,101638.41
2022-10-25T08:18:38.622Z,101641.78
2022-10-25T08:21:05.684Z,101642.56
2022-10-25T08:23:33.260Z,101645.06
2022-10-25T08:26:03.732Z,101636.00
2022-10-25T08:28:31.325Z,101644.00
2022-10-25T08:31:00.533Z,101648.47
2022-10-25T08:33:27.613Z,101652.84
2022-10-25T08:35:54.472Z,101650.88
2022-10-25T08:38:21.358Z,101649.94
2022-10-25T08:41:10.472Z,101650.78
2022-10-25T08:43:52.389Z,101645.41
2022-10-25T08:46:44.556Z,101657.81
2022-10-25T08:49:52.884Z,101660.28
2022-10-25T08:52:30.236Z,101667.97
2022-10-25T08:55:03.264Z,101663.50
2022-10-25T08:57:41.379Z,101673.22
2022-10-25T09:00:17.437Z,101674.94
2022-10-25T09:02:59.495Z,101684.66
2022-10-25T09:05:50.308Z,101692.50
2022-10-25T09:08:54.197Z,101688.00
2022-10-25T09:11:26.928Z,101693.25
2022-10-25T09:14:15.549Z,101700.22
2022-10-25T09:16:53.608Z,101697.19
2022-10-25T09:19:37.568Z,101695.19
2022-10-25T09:22:11.876Z,101703.06
2022-10-25T09:25:18.443Z,101704.28
2022-10-25T09:28:03.495Z,101705.72
2022-10-25T09:30:41.684Z,101703.75
2022-10-25T09:35:53.463Z,101708.72
2022-10-25T09:38:30.772Z,101701.97
2022-10-25T09:41:11.559Z,101710.75
2022-10-25T09:43:54.928Z,101709.88
2022-10-25T09:46:36.997Z,101712.34
2022-10-25T09:49:19.713Z,101720.19
2022-10-25T09:52:31.753Z,101711.63
2022-10-25T09:55:39.324Z,101712.03
2022-10-25T09:58:07.140Z,101720.69
2022-10-25T10:00:40.448Z,101715.91
2022-10-25T10:03:13.670Z,101718.94
2022-10-25T10:05:57.008Z,101717.97
2022-10-25T10:08:28.764Z,101733.19
2022-10-25T10:10:56.923Z,101730.00
2022-10-25T10:14:09.200Z,101731.50
2022-10-25T10:16:45.461Z,101734.88
2022-10-25T10:19:29.333Z,101727.81
2022-10-25T10:22:00.725Z,101738.03
2022-10-25T10:24:29.983Z,101732.22
2022-10-25T10:27:05.987Z,101733.09
2022-10-25T10:29:37.004Z,101736.59
2022-10-25T10:32:29.258Z,101732.16
2022-10-25T10:34:58.364Z,101738.34
2022-10-25T10:37:27.531Z,101735.88
2022-10-25T10:40:19.744Z,101741.72
2022-10-25T10:42:46.981Z,101745.19
2022-10-25T10:45:19.824Z,101743.81
2022-10-25T10:47:52.481Z,101754.88
2022-10-25T10:50:22.296Z,101748.84
2022-10-25T10:53:05.921Z,101743.72
2022-10-25T10:55:49.049Z,101749.94
2022-10-25T10:58:24.712Z,101750.41
2022-10-25T11:00:57.097Z,101755.63
2022-10-25T11:03:53.502Z,101745.38
2022-10-25T11:06:33.350Z,101746.91
2022-10-25T11:09:12.516Z,101757.81
2022-10-25T11:11:40.393Z,101756.28
2022-10-25T11:14:25.514Z,101758.31
2022-10-25T11:17:17.323Z,101762.19
2022-10-25T11:19:57.657Z,101757.75
2022-10-25T11:23:05.111Z,101757.44
2022-10-25T11:25:52.909Z,101764.78
2022-10-25T11:28:39.583Z,101765.72
2022-10-25T11:31:10.639Z,101769.00
2022-10-25T11:34:20.584Z,101771.63
2022-10-25T11:37:11.976Z,101767.94
2022-10-25T11:40:21.743Z,101768.56
2022-10-25T11:43:03.512Z,101763.13
2022-10-25T11:45:43.658Z,101765.38
2022-10-25T11:49:02.347Z,101765.31
2022-10-25T11:52:02.889Z,101761.06
2022-10-25T11:55:04.520Z,101771.50
2022-10-25T11:57:54.950Z,101759.88
2022-10-25T12:00:31.632Z,101759.88
2022-10-25T12:03:47.467Z,101761.56
2022-10-25T12:06:32.171Z,101762.63
2022-10-25T12:09:22.526Z,101770.13
2022-10-25T12:12:01.633Z,101767.84
2022-10-25T12:14:38.537Z,101766.25
2022-10-25T12:17:33.526Z,101762.97
2022-10-25T12:20:05.887Z,101766.16
2022-10-25T12:22:45.175Z,101765.19
2022-10-25T12:25:35.209Z,101768.69
2022-10-25T12:28:25.390Z,101762.53
2022-10-25T12:31:15.644Z,101761.22
2022-10-25T12:34:09.150Z,101763.63
2022-10-25T12:36:41.812Z,101760.59
2022-10-25T12:39:22.607Z,101763.22
2022-10-25T12:41:59.243Z,101764.31
2022-10-25T12:44:47.058Z,101767.94
2022-10-25T12:47:39.646Z,101766.78
2022-10-25T12:50:49.039Z,101761.00
2022-10-25T12:53:50.738Z,101758.38
2022-10-25T12:56:54.859Z,101764.63
2022-10-25T12:59:44.965Z,101751.03
2022-10-25T13:02:37.412Z,101760.25
2022-10-25T13:05:49.233Z,101758.78
2022-10-25T13:08:22.317Z,101765.91
2022-10-25T13:11:02.856Z,101765.09
2022-10-25T13:13:55.711Z,101761.31
2022-10-25T13:16:30.147Z,101758.84
2022-10-25T13:19:53.677Z,101756.38
2022-10-25T13:22:40.002Z,101767.19
2022-10-25T13:25:12.275Z,101764.38
2022-10-25T13:28:15.454Z,101759.34
2022-10-25T13:30:44.322Z,101766.78
2022-10-25T13:33:37.554Z,101767.81
2022-10-25T13:36:05.878Z,101766.78
2022-10-25T13:38:39.718Z,101766.88
2022-10-25T13:41:16.819Z,101782.28
2022-10-25T13:43:59.606Z,101773.81
2022-10-25T13:46:41.288Z,101772.81
2022-10-25T13:49:35.740Z,101760.44
2022-10-25T13:52:21.379Z,101765.69
2022-10-25T13:54:53.820Z,101760.03
2022-10-25T13:57:51.548Z,101762.00
2022-10-25T14:00:27.447Z,101760.13
2022-10-25T14:03:34.590Z,101757.63
2022-10-25T14:06:01.395Z,101760.97
2022-10-25T14:08:54.448Z,101756.25
2022-10-25T14:11:41.427Z,101754.53
2022-10-25T14:14:11.254Z,101759.25
2022-10-25T14:16:53.053Z,101765.63
2022-10-25T14:19:43.865Z,101759.44
2022-10-25T14:22:41.095Z,101757.63
2022-10-25T14:25:24.774Z,101757.75
2022-10-25T14:28:16.392Z,101750.63
2022-10-25T14:30:48.895Z,101751.66
2022-10-25T14:33:25.118Z,101758.69
2022-10-25T14:36:06.567Z,101754.59
2022-10-25T14:38:51.710Z,101751.31
2022-10-25T14:41:35.186Z,101751.50
2022-10-25T14:44:03.010Z,101744.38
2022-10-25T14:46:30.656Z,101744.13
2022-10-25T14:48:59.972Z,101748.69
2022-10-25T14:51:37.225Z,101748.75
2022-10-25T14:54:27.968Z,101741.91
2022-10-25T14:57:05.934Z,101743.78
2022-10-25T14:59:50.632Z,101733.38
2022-10-25T15:02:34.310Z,101730.75
2022-10-25T15:05:03.837Z,101730.28
2022-10-25T15:07:40.267Z,101738.56
2022-10-25T15:10:26.674Z,101726.25
2022-10-25T15:12:53.583Z,101737.16
2022-10-25T15:15:40.405Z,101726.47
2022-10-25T15:18:32.608Z,101729.16
2022-10-25T15:21:03.747Z,101723.13
2022-10-25T15:23:31.105Z,101730.22
2022-10-25T15:25:58.108Z,101722.31
2022-10-25T15:28:25.047Z,101722.31
2022-10-25T15:30:54.616Z,101722.53
2022-10-25T15:33:31.698Z,101715.63
2022-10-25T15:36:05.121Z,101720.94
2022-10-25T15:39:05.373Z,101729.44
2022-10-25T15:41:22.687Z,101729.56
2022-10-25T15:43:50.051Z,101725.25
2022-10-25T15:46:34.128Z,101727.06
2022-10-25T15:49:06.529Z,101729.38
2022-10-25T15:51:36.483Z,101737.53
2022-10-25T15:54:03.717Z,101724.13
2022-10-25T15:56:30.675Z,101726.09
2022-10-25T15:59:00.194Z,101732.50
2022-10-25T16:01:27.186Z,101721.06
2022-10-25T16:03:54.131Z,101722.97
2022-10-25T16:06:21.085Z,101708.78
2022-10-25T16:08:48.011Z,101712.50
2022-10-25T16:11:18.988Z,101709.00
2022-10-25T16:13:50.102Z,101710.78
2022-10-25T16:16:41.116Z,101709.00
2022-10-25T16:19:17.466Z,101710.94
2022-10-25T16:21:45.211Z,101709.19
2022-10-25T16:24:12.637Z,101713.00
2022-10-25T16:26:44.401Z,101713.88
2022-10-25T16:29:26.353Z,101714.81
2022-10-25T16:31:53.912Z,101721.19
2022-10-25T16:34:20.892Z,101717.69
2022-10-25T16:36:50.211Z,101722.22
2022-10-25T16:39:17.870Z,101724.97
2022-10-25T16:41:46.578Z,101725.06
2022-10-25T16:44:16.719Z,101726.13
2022-10-25T16:46:44.452Z,101732.47
2022-10-25T16:49:12.206Z,101734.56
2022-10-25T16:51:40.412Z,101731.94
2022-10-25T16:54:08.049Z,101732.16
2022-10-25T16:56:35.603Z,101732.34
2022-10-25T16:59:02.830Z,101733.38
2022-10-25T17:01:33.497Z,101734.44
2022-10-25T17:04:02.515Z,101732.81
2022-10-25T17:06:40.685Z,101723.09
2022-10-25T17:09:08.990Z,101726.69
2022-10-25T17:11:36.278Z,101727.66
2022-10-25T17:14:03.484Z,101726.00
2022-10-25T17:16:30.374Z,101728.03
2022-10-25T17:18:57.315Z,101721.88
2022-10-25T17:21:24.335Z,101722.84
2022-10-25T17:23:51.380Z,101716.84
2022-10-25T17:26:18.270Z,101717.03
2022-10-25T17:28:45.193Z,101719.84
2022-10-25T17:31:14.302Z,101724.47
2022-10-25T17:33:43.139Z,101721.88
2022-10-25T17:36:16.832Z,101722.06
2022-10-25T17:38:44.066Z,101725.84
2022-10-25T17:41:12.137Z,101723.34
2022-10-25T17:43:40.991Z,101713.69
2022-10-25T17:46:19.507Z,101718.22
2022-10-25T17:48:47.296Z,101724.69
2022-10-25T17:51:15.967Z,101716.84
2022-10-25T17:53:42.979Z,101722.31
2022-10-25T17:56:16.741Z,101721.53
2022-10-25T17:58:46.514Z,101719.06
2022-10-25T18:01:20.108Z,101730.78
2022-10-25T18:03:47.756Z,101722.09
2022-10-25T18:06:18.241Z,101724.84
2022-10-25T18:08:45.641Z,101723.09
2022-10-25T18:11:24.483Z,101723.31
2022-10-25T18:13:54.408Z,101726.06
2022-10-25T18:16:23.206Z,101726.16
2022-10-25T18:18:50.164Z,101731.66
2022-10-25T18:21:17.155Z,101737.09
2022-10-25T18:23:44.600Z,101732.78
2022-10-25T18:26:13.478Z,101736.44
2022-10-25T18:28:40.499Z,101731.31
2022-10-25T18:31:11.631Z,101723.50
2022-10-25T18:33:41.144Z,101731.59
2022-10-25T18:36:19.901Z,101732.66
2022-10-25T18:38:51.304Z,101735.44
2022-10-25T18:41:22.976Z,101739.09
2022-10-25T18:43:50.544Z,101738.34
2022-10-25T18:46:18.083Z,101734.03
2022-10-25T18:48:45.180Z,101743.03
2022-10-25T18:51:14.194Z,101738.78
2022-10-25T18:53:41.131Z,101731.78
2022-10-25T18:56:16.984Z,101736.28
2022-10-25T18:58:46.642Z,101736.41
2022-10-25T19:01:17.852Z,101732.94
2022-10-25T19:03:46.088Z,101737.44
2022-10-25T19:06:13.226Z,101733.97
2022-10-25T19:08:40.387Z,101734.03
2022-10-25T19:11:10.072Z,101735.97
2022-10-25T19:13:37.771Z,101735.16
2022-10-25T19:16:06.170Z,101725.44
2022-10-25T19:18:35.458Z,101725.56
2022-10-25T19:21:06.278Z,101724.72
2022-10-25T19:23:34.423Z,101724.84
2022-10-25T19:26:10.058Z,101721.31
2022-10-25T19:28:37.458Z,101713.31
2022-10-25T19:31:06.995Z,101710.66
2022-10-25T19:33:34.907Z,101714.28
2022-10-25T19:36:10.579Z,101706.31
2022-10-25T19:38:39.192Z,101703.78
2022-10-25T19:41:09.611Z,101704.72
2022-10-25T19:43:37.124Z,101697.66
2022-10-25T19:46:06.838Z,101697.75
2022-10-25T19:48:34.810Z,101694.22
2022-10-25T19:51:10.949Z,101692.53
2022-10-25T19:53:38.390Z,101700.66
2022-10-25T19:56:08.742Z,101701.53
2022-10-25T19:58:36.363Z,101710.53
2022-10-25T20:01:24.981Z,101708.88
2022-10-25T20:03:55.295Z,101702.66
2022-10-25T20:06:25.449Z,101696.56
2022-10-25T20:08:54.051Z,101698.41
2022-10-25T20:11:23.283Z,101695.78
2022-10-25T20:13:55.564Z,101689.66
2022-10-25T20:16:23.608Z,101690.53
2022-10-25T20:18:50.616Z,101687.97
2022-10-25T20:21:21.915Z,101687.16
2022-10-25T20:23:56.182Z,101689.91
2022-10-25T20:26:29.496Z,101686.41
2022-10-25T20:29:00.261Z,101691.03
2022-10-25T20:31:30.062Z,101690.16
2022-10-25T20:33:57.564Z,101683.97
2022-10-25T20:36:25.826Z,101682.34
2022-10-25T20:38:52.808Z,101687.72
2022-10-25T20:41:26.515Z,101686.88
2022-10-25T20:44:00.015Z,101687.84
2022-10-25T20:46:28.527Z,101697.69
2022-10-25T20:48:56.617Z,101690.66
2022-10-25T20:51:24.042Z,101690.69
2022-10-25T20:53:51.012Z,101691.69
2022-10-25T20:56:20.592Z,101697.00
2022-10-25T20:58:48.121Z,101694.44
2022-10-25T21:01:15.922Z,101694.50
2022-10-25T21:03:43.233Z,101690.06
2022-10-25T21:06:12.193Z,101693.69
2022-10-25T21:08:39.727Z,101693.72
2022-10-25T21:11:10.285Z,101692.00
2022-10-25T21:13:37.840Z,101690.28
2022-10-25T21:16:11.344Z,101692.16
2022-10-25T21:18:38.694Z,101693.09
2022-10-25T21:21:09.525Z,101691.38
2022-10-25T21:23:37.114Z,101693.19
2022-10-25T21:26:07.106Z,101690.47
2022-10-25T21:28:39.596Z,101688.75
2022-10-25T21:31:13.025Z,101687.97
2022-10-25T21:33:41.787Z,101683.53
2022-10-25T21:36:12.335Z,101688.03
2022-10-25T21:38:39.603Z,101680.94
2022-10-25T21:41:20.421Z,101677.41
2022-10-25T21:43:49.586Z,101681.81
2022-10-25T21:46:19.481Z,101673.88
2022-10-25T21:48:47.891Z,101682.75
2022-10-25T21:51:15.140Z,101681.88
2022-10-25T21:53:42.307Z,101680.97
2022-10-25T21:56:13.372Z,101681.00
2022-10-25T21:58:42.691Z,101677.56
2022-10-25T22:01:12.625Z,101677.59
2022-10-25T22:03:41.068Z,101666.97
2022-10-25T22:06:10.974Z,101674.06
2022-10-25T22:08:38.723Z,101674.16
2022-10-25T22:11:12.440Z,101667.13
2022-10-25T22:13:40.081Z,101672.47
2022-10-25T22:16:14.921Z,101672.44
2022-10-25T22:18:42.544Z,101669.78
2022-10-25T22:21:12.137Z,101668.97
2022-10-25T22:23:39.603Z,101670.75
2022-10-25T22:26:10.812Z,101666.34
2022-10-25T22:28:40.928Z,101661.06
2022-10-25T22:31:16.064Z,101653.97
2022-10-25T22:33:44.363Z,101663.81
2022-10-25T22:36:17.187Z,101662.97
2022-10-25T22:38:45.107Z,101661.16
2022-10-25T22:41:15.451Z,101664.75
2022-10-25T22:43:42.855Z,101663.91
2022-10-25T22:46:21.593Z,101661.34
2022-10-25T22:48:49.824Z,101653.41
2022-10-25T22:51:16.760Z,101654.34
2022-10-25T22:53:43.726Z,101650.88
2022-10-25T22:56:14.794Z,101657.06
2022-10-25T22:58:43.492Z,101650.94
2022-10-25T23:01:17.737Z,101653.66
2022-10-25T23:03:48.801Z,101655.47
2022-10-25T23:06:20.584Z,101655.53
2022-10-25T23:08:47.881Z,101650.25
2022-10-25T23:11:18.109Z,101652.03
2022-10-25T23:13:45.399Z,101653.84
2022-10-25T23:16:14.068Z,101657.38
2022-10-25T23:18:41.977Z,101652.09
2022-10-25T23:21:19.178Z,101652.13
2022-10-25T23:23:46.939Z,101655.72
2022-10-25T23:26:34.581Z,101655.78
2022-10-25T23:29:01.999Z,101652.25
2022-10-25T23:31:30.190Z,101659.38
2022-10-25T23:34:00.117Z,101654.06
2022-10-25T23:36:36.951Z,101654.06
2022-10-25T23:39:06.068Z,101653.22
2022-10-25T23:41:32.952Z,101655.88
2022-10-25T23:43:59.955Z,101647.88
2022-10-25T23:46:27.749Z,101651.44
2022-10-25T23:48:54.659Z,101648.75
2022-10-25T23:51:21.543Z,101640.81
2022-10-25T23:53:48.695Z,101633.72
2022-10-25T23:56:15.776Z,101635.50
2022-10-25T23:58:42.710Z,101630.25
